Main page
METAR-TAF:

METAR-TAF

Airports :

Trevico, Italy

latitude: 41-03N, longitude: 015-14E, elevation: 1085 m

Current weather observation

The report was made 26 minutes ago, at 13:55 UTC
Wind 13 kt from the North/Northwest
Temperature 4°C
Humidity 38%
Pressure 1028 hPa
Visibility 10 km or more
no clouds below 1500 m and no cumulonimbus

METAR: LIRT 221355Z 34013KT CAVOK 04/M09 Q1028 RMK SKC MON LIB VAL NIL VIS MIN 9999

Time: 15:21 (14:21 UTC)


TAF: missing

Weather observations and forecasts of more than 4000 airports (METAR and TAF reports).

The available stations are represented by yellow and red dots on the map.

Hover mouse over dot to see the name of the station.

Then click to see weather observations and forecasts.

To change the map : click on the green buttons with a black cross to zoom in, on the green button with a dash to zoom out, or on the green arrows for adjacent maps.


METAR-TAF: